sensor_id;sensor_type;location;lat;lon;timestamp;P1;durP1;ratioP1;P2;durP2;ratioP2
3121;SDS011;1571;52.524;14.104;2023-03-17T00:01:44;13.07;;;4.40;;
3121;SDS011;1571;52.524;14.104;2023-03-17T00:04:17;3.07;;;2.60;;
3121;SDS011;1571;52.524;14.104;2023-03-17T00:06:45;4.53;;;3.30;;
3121;SDS011;1571;52.524;14.104;2023-03-17T00:09:15;6.00;;;3.57;;
3121;SDS011;1571;52.524;14.104;2023-03-17T00:11:46;3.67;;;3.30;;
3121;SDS011;1571;52.524;14.104;2023-03-17T00:14:15;5.10;;;3.33;;
3121;SDS011;1571;52.524;14.104;2023-03-17T00:16:44;7.50;;;4.30;;
3121;SDS011;1571;52.524;14.104;2023-03-17T00:19:15;4.97;;;3.93;;
3121;SDS011;1571;52.524;14.104;2023-03-17T00:21:46;7.93;;;3.35;;
3121;SDS011;1571;52.524;14.104;2023-03-17T00:24:15;6.17;;;3.93;;
3121;SDS011;1571;52.524;14.104;2023-03-17T00:26:44;6.25;;;3.97;;
3121;SDS011;1571;52.524;14.104;2023-03-17T00:29:14;7.05;;;3.88;;
3121;SDS011;1571;52.524;14.104;2023-03-17T00:31:43;6.53;;;3.77;;
3121;SDS011;1571;52.524;14.104;2023-03-17T00:34:13;6.10;;;3.70;;
3121;SDS011;1571;52.524;14.104;2023-03-17T00:36:46;8.10;;;4.00;;
3121;SDS011;1571;52.524;14.104;2023-03-17T00:39:16;3.83;;;3.43;;
3121;SDS011;1571;52.524;14.104;2023-03-17T00:41:45;11.13;;;4.20;;
3121;SDS011;1571;52.524;14.104;2023-03-17T00:44:15;10.50;;;4.50;;
3121;SDS011;1571;52.524;14.104;2023-03-17T00:46:44;4.60;;;3.57;;
3121;SDS011;1571;52.524;14.104;2023-03-17T00:49:14;5.27;;;3.43;;
3121;SDS011;1571;52.524;14.104;2023-03-17T00:51:43;4.40;;;3.40;;
3121;SDS011;1571;52.524;14.104;2023-03-17T00:54:13;5.83;;;3.93;;
3121;SDS011;1571;52.524;14.104;2023-03-17T00:56:42;5.60;;;3.30;;
3121;SDS011;1571;52.524;14.104;2023-03-17T00:59:14;4.93;;;3.67;;
3121;SDS011;1571;52.524;14.104;2023-03-17T01:01:48;5.53;;;3.08;;
3121;SDS011;1571;52.524;14.104;2023-03-17T01:04:17;8.20;;;3.20;;
3121;SDS011;1571;52.524;14.104;2023-03-17T01:06:46;5.70;;;4.20;;
3121;SDS011;1571;52.524;14.104;2023-03-17T01:09:17;4.47;;;3.00;;
3121;SDS011;1571;52.524;14.104;2023-03-17T01:11:49;7.20;;;4.03;;
3121;SDS011;1571;52.524;14.104;2023-03-17T01:14:19;3.93;;;3.27;;
3121;SDS011;1571;52.524;14.104;2023-03-17T01:16:48;6.17;;;4.50;;
3121;SDS011;1571;52.524;14.104;2023-03-17T01:19:18;6.30;;;3.90;;
3121;SDS011;1571;52.524;14.104;2023-03-17T01:21:47;7.30;;;4.00;;
3121;SDS011;1571;52.524;14.104;2023-03-17T01:24:15;7.28;;;5.60;;
3121;SDS011;1571;52.524;14.104;2023-03-17T01:26:43;8.23;;;4.30;;
3121;SDS011;1571;52.524;14.104;2023-03-17T01:29:11;5.27;;;2.97;;
3121;SDS011;1571;52.524;14.104;2023-03-17T01:31:41;5.90;;;4.07;;
3121;SDS011;1571;52.524;14.104;2023-03-17T01:34:10;6.33;;;4.00;;
3121;SDS011;1571;52.524;14.104;2023-03-17T01:36:38;7.75;;;5.00;;
3121;SDS011;1571;52.524;14.104;2023-03-17T01:39:07;5.57;;;4.23;;
3121;SDS011;1571;52.524;14.104;2023-03-17T01:41:35;8.80;;;4.30;;
3121;SDS011;1571;52.524;14.104;2023-03-17T01:44:06;9.00;;;3.90;;
3121;SDS011;1571;52.524;14.104;2023-03-17T01:46:39;8.97;;;3.90;;
3121;SDS011;1571;52.524;14.104;2023-03-17T01:49:12;8.87;;;4.43;;
3121;SDS011;1571;52.524;14.104;2023-03-17T01:51:48;9.40;;;5.07;;
3121;SDS011;1571;52.524;14.104;2023-03-17T01:54:23;7.47;;;4.60;;
3121;SDS011;1571;52.524;14.104;2023-03-17T01:56:56;14.80;;;5.93;;
3121;SDS011;1571;52.524;14.104;2023-03-17T01:59:30;6.30;;;4.60;;
3121;SDS011;1571;52.524;14.104;2023-03-17T02:02:03;8.60;;;6.40;;
3121;SDS011;1571;52.524;14.104;2023-03-17T02:04:35;7.63;;;5.10;;
3121;SDS011;1571;52.524;14.104;2023-03-17T02:07:04;10.40;;;4.88;;
3121;SDS011;1571;52.524;14.104;2023-03-17T02:09:33;11.40;;;5.10;;
3121;SDS011;1571;52.524;14.104;2023-03-17T02:12:02;7.97;;;4.80;;
3121;SDS011;1571;52.524;14.104;2023-03-17T02:14:32;7.70;;;4.83;;
3121;SDS011;1571;52.524;14.104;2023-03-17T02:17:02;9.10;;;5.60;;
3121;SDS011;1571;52.524;14.104;2023-03-17T02:19:30;10.07;;;5.35;;
3121;SDS011;1571;52.524;14.104;2023-03-17T02:21:59;8.63;;;5.37;;
3121;SDS011;1571;52.524;14.104;2023-03-17T02:24:29;8.00;;;5.50;;
3121;SDS011;1571;52.524;14.104;2023-03-17T02:27:03;7.47;;;5.30;;
3121;SDS011;1571;52.524;14.104;2023-03-17T02:29:37;6.80;;;5.10;;
3121;SDS011;1571;52.524;14.104;2023-03-17T02:32:07;6.67;;;4.70;;
3121;SDS011;1571;52.524;14.104;2023-03-17T02:34:36;11.75;;;5.95;;
3121;SDS011;1571;52.524;14.104;2023-03-17T02:37:06;7.45;;;4.50;;
3121;SDS011;1571;52.524;14.104;2023-03-17T02:39:35;9.20;;;6.13;;
3121;SDS011;1571;52.524;14.104;2023-03-17T02:42:04;9.73;;;6.40;;
3121;SDS011;1571;52.524;14.104;2023-03-17T02:44:33;9.47;;;6.37;;
3121;SDS011;1571;52.524;14.104;2023-03-17T02:47:01;7.23;;;4.57;;
3121;SDS011;1571;52.524;14.104;2023-03-17T02:49:30;8.37;;;5.50;;
3121;SDS011;1571;52.524;14.104;2023-03-17T02:51:59;10.93;;;6.17;;
3121;SDS011;1571;52.524;14.104;2023-03-17T02:54:29;9.20;;;5.77;;
3121;SDS011;1571;52.524;14.104;2023-03-17T02:56:58;10.43;;;5.53;;
3121;SDS011;1571;52.524;14.104;2023-03-17T02:59:26;10.07;;;6.60;;
3121;SDS011;1571;52.524;14.104;2023-03-17T03:01:55;7.70;;;5.60;;
3121;SDS011;1571;52.524;14.104;2023-03-17T03:04:23;8.67;;;5.87;;
3121;SDS011;1571;52.524;14.104;2023-03-17T03:06:52;8.38;;;4.85;;
3121;SDS011;1571;52.524;14.104;2023-03-17T03:09:21;9.90;;;6.03;;
3121;SDS011;1571;52.524;14.104;2023-03-17T03:11:51;16.40;;;5.50;;
3121;SDS011;1571;52.524;14.104;2023-03-17T03:14:19;7.13;;;4.93;;
3121;SDS011;1571;52.524;14.104;2023-03-17T03:16:47;10.47;;;5.77;;
3121;SDS011;1571;52.524;14.104;2023-03-17T03:19:15;8.27;;;5.23;;
3121;SDS011;1571;52.524;14.104;2023-03-17T03:21:44;11.90;;;5.97;;
3121;SDS011;1571;52.524;14.104;2023-03-17T03:24:12;12.50;;;6.30;;
3121;SDS011;1571;52.524;14.104;2023-03-17T03:26:41;7.23;;;5.70;;
3121;SDS011;1571;52.524;14.104;2023-03-17T03:29:11;15.20;;;7.30;;
3121;SDS011;1571;52.524;14.104;2023-03-17T03:31:39;12.73;;;5.50;;
3121;SDS011;1571;52.524;14.104;2023-03-17T03:34:07;11.07;;;5.67;;
3121;SDS011;1571;52.524;14.104;2023-03-17T03:36:35;12.33;;;7.30;;
3121;SDS011;1571;52.524;14.104;2023-03-17T03:39:03;10.90;;;6.57;;
3121;SDS011;1571;52.524;14.104;2023-03-17T03:41:31;11.07;;;6.80;;
3121;SDS011;1571;52.524;14.104;2023-03-17T03:44:00;9.70;;;6.20;;
3121;SDS011;1571;52.524;14.104;2023-03-17T03:46:29;8.00;;;5.80;;
3121;SDS011;1571;52.524;14.104;2023-03-17T03:48:58;11.33;;;6.53;;
3121;SDS011;1571;52.524;14.104;2023-03-17T03:51:26;9.00;;;5.77;;
3121;SDS011;1571;52.524;14.104;2023-03-17T03:53:54;8.93;;;7.70;;
3121;SDS011;1571;52.524;14.104;2023-03-17T03:56:22;11.95;;;7.97;;
3121;SDS011;1571;52.524;14.104;2023-03-17T03:58:51;11.10;;;6.80;;
3121;SDS011;1571;52.524;14.104;2023-03-17T04:01:19;8.48;;;6.05;;
3121;SDS011;1571;52.524;14.104;2023-03-17T04:03:49;12.20;;;6.90;;
3121;SDS011;1571;52.524;14.104;2023-03-17T04:06:17;13.30;;;6.30;;
3121;SDS011;1571;52.524;14.104;2023-03-17T04:08:45;9.37;;;5.90;;
3121;SDS011;1571;52.524;14.104;2023-03-17T04:11:14;12.37;;;6.67;;
3121;SDS011;1571;52.524;14.104;2023-03-17T04:13:42;6.53;;;5.83;;
3121;SDS011;1571;52.524;14.104;2023-03-17T04:16:10;11.67;;;5.57;;
3121;SDS011;1571;52.524;14.104;2023-03-17T04:18:38;8.40;;;5.83;;
3121;SDS011;1571;52.524;14.104;2023-03-17T04:21:08;9.83;;;5.87;;
3121;SDS011;1571;52.524;14.104;2023-03-17T04:23:36;9.70;;;6.60;;
3121;SDS011;1571;52.524;14.104;2023-03-17T04:26:05;8.30;;;6.47;;
3121;SDS011;1571;52.524;14.104;2023-03-17T04:28:33;10.13;;;5.57;;
3121;SDS011;1571;52.524;14.104;2023-03-17T04:31:01;8.97;;;5.97;;
3121;SDS011;1571;52.524;14.104;2023-03-17T04:33:30;9.90;;;6.37;;
3121;SDS011;1571;52.524;14.104;2023-03-17T04:35:58;10.80;;;7.30;;
3121;SDS011;1571;52.524;14.104;2023-03-17T04:38:27;7.40;;;5.90;;
3121;SDS011;1571;52.524;14.104;2023-03-17T04:40:56;13.03;;;6.60;;
3121;SDS011;1571;52.524;14.104;2023-03-17T04:43:24;11.10;;;6.32;;
3121;SDS011;1571;52.524;14.104;2023-03-17T04:45:52;9.07;;;6.40;;
3121;SDS011;1571;52.524;14.104;2023-03-17T04:48:21;13.17;;;6.57;;
3121;SDS011;1571;52.524;14.104;2023-03-17T04:50:49;12.60;;;6.13;;
3121;SDS011;1571;52.524;14.104;2023-03-17T04:53:17;9.40;;;5.80;;
3121;SDS011;1571;52.524;14.104;2023-03-17T04:55:47;9.63;;;6.13;;
3121;SDS011;1571;52.524;14.104;2023-03-17T04:58:15;10.17;;;5.83;;
3121;SDS011;1571;52.524;14.104;2023-03-17T05:00:56;12.30;;;6.80;;
3121;SDS011;1571;52.524;14.104;2023-03-17T05:03:24;12.93;;;6.13;;
3121;SDS011;1571;52.524;14.104;2023-03-17T05:05:55;8.23;;;6.13;;
3121;SDS011;1571;52.524;14.104;2023-03-17T05:08:23;12.67;;;5.77;;
3121;SDS011;1571;52.524;14.104;2023-03-17T05:10:55;9.13;;;6.80;;
3121;SDS011;1571;52.524;14.104;2023-03-17T05:13:24;7.07;;;5.67;;
3121;SDS011;1571;52.524;14.104;2023-03-17T05:15:53;6.20;;;5.47;;
3121;SDS011;1571;52.524;14.104;2023-03-17T05:18:23;9.70;;;5.90;;
3121;SDS011;1571;52.524;14.104;2023-03-17T05:20:52;10.50;;;6.10;;
3121;SDS011;1571;52.524;14.104;2023-03-17T05:23:21;8.90;;;6.80;;
3121;SDS011;1571;52.524;14.104;2023-03-17T05:25:49;11.40;;;6.50;;
3121;SDS011;1571;52.524;14.104;2023-03-17T05:28:20;10.15;;;6.18;;
3121;SDS011;1571;52.524;14.104;2023-03-17T05:30:49;9.07;;;6.78;;
3121;SDS011;1571;52.524;14.104;2023-03-17T05:33:17;10.38;;;6.30;;
3121;SDS011;1571;52.524;14.104;2023-03-17T05:35:47;13.03;;;6.93;;
3121;SDS011;1571;52.524;14.104;2023-03-17T05:38:16;8.67;;;5.90;;
3121;SDS011;1571;52.524;14.104;2023-03-17T05:40:44;13.97;;;5.83;;
3121;SDS011;1571;52.524;14.104;2023-03-17T05:43:14;9.13;;;6.87;;
3121;SDS011;1571;52.524;14.104;2023-03-17T05:45:43;10.57;;;6.07;;
3121;SDS011;1571;52.524;14.104;2023-03-17T05:48:13;9.13;;;5.90;;
3121;SDS011;1571;52.524;14.104;2023-03-17T05:50:41;11.27;;;6.10;;
3121;SDS011;1571;52.524;14.104;2023-03-17T05:53:10;7.50;;;5.60;;
3121;SDS011;1571;52.524;14.104;2023-03-17T05:55:38;10.33;;;6.53;;
3121;SDS011;1571;52.524;14.104;2023-03-17T05:58:06;7.70;;;6.00;;
3121;SDS011;1571;52.524;14.104;2023-03-17T06:00:35;10.40;;;6.23;;
3121;SDS011;1571;52.524;14.104;2023-03-17T06:03:05;7.37;;;6.40;;
3121;SDS011;1571;52.524;14.104;2023-03-17T06:05:33;11.20;;;6.45;;
3121;SDS011;1571;52.524;14.104;2023-03-17T06:08:02;9.37;;;5.63;;
3121;SDS011;1571;52.524;14.104;2023-03-17T06:10:31;8.17;;;6.40;;
3121;SDS011;1571;52.524;14.104;2023-03-17T06:13:00;9.63;;;6.13;;
3121;SDS011;1571;52.524;14.104;2023-03-17T06:15:30;7.40;;;5.60;;
3121;SDS011;1571;52.524;14.104;2023-03-17T06:18:00;10.53;;;5.37;;
3121;SDS011;1571;52.524;14.104;2023-03-17T06:20:29;9.73;;;5.80;;
3121;SDS011;1571;52.524;14.104;2023-03-17T06:22:58;8.53;;;5.90;;
3121;SDS011;1571;52.524;14.104;2023-03-17T06:25:31;7.83;;;5.50;;
3121;SDS011;1571;52.524;14.104;2023-03-17T06:28:00;10.40;;;7.03;;
3121;SDS011;1571;52.524;14.104;2023-03-17T06:30:30;7.43;;;4.97;;
3121;SDS011;1571;52.524;14.104;2023-03-17T06:32:59;10.48;;;6.38;;
3121;SDS011;1571;52.524;14.104;2023-03-17T06:35:29;11.10;;;6.77;;
3121;SDS011;1571;52.524;14.104;2023-03-17T06:37:58;8.73;;;5.55;;
3121;SDS011;1571;52.524;14.104;2023-03-17T06:40:27;6.57;;;5.60;;
3121;SDS011;1571;52.524;14.104;2023-03-17T06:42:55;8.25;;;5.10;;
3121;SDS011;1571;52.524;14.104;2023-03-17T06:45:23;7.30;;;5.23;;
3121;SDS011;1571;52.524;14.104;2023-03-17T06:47:52;8.07;;;4.63;;
3121;SDS011;1571;52.524;14.104;2023-03-17T06:50:20;5.83;;;4.60;;
3121;SDS011;1571;52.524;14.104;2023-03-17T06:52:50;6.50;;;5.17;;
3121;SDS011;1571;52.524;14.104;2023-03-17T06:55:18;10.77;;;5.70;;
3121;SDS011;1571;52.524;14.104;2023-03-17T06:57:47;15.90;;;6.63;;
3121;SDS011;1571;52.524;14.104;2023-03-17T07:00:17;10.40;;;6.10;;
3121;SDS011;1571;52.524;14.104;2023-03-17T07:02:46;10.43;;;5.00;;
3121;SDS011;1571;52.524;14.104;2023-03-17T07:05:15;8.37;;;5.80;;
3121;SDS011;1571;52.524;14.104;2023-03-17T07:07:44;6.77;;;5.37;;
3121;SDS011;1571;52.524;14.104;2023-03-17T07:10:14;7.97;;;5.20;;
3121;SDS011;1571;52.524;14.104;2023-03-17T07:12:43;9.40;;;5.40;;
3121;SDS011;1571;52.524;14.104;2023-03-17T07:15:12;9.23;;;5.63;;
3121;SDS011;1571;52.524;14.104;2023-03-17T07:17:40;13.97;;;6.17;;
3121;SDS011;1571;52.524;14.104;2023-03-17T07:20:09;9.37;;;5.57;;
3121;SDS011;1571;52.524;14.104;2023-03-17T07:22:37;8.63;;;4.60;;
3121;SDS011;1571;52.524;14.104;2023-03-17T07:25:06;6.63;;;5.70;;
3121;SDS011;1571;52.524;14.104;2023-03-17T07:27:36;10.20;;;6.80;;
3121;SDS011;1571;52.524;14.104;2023-03-17T07:30:05;8.23;;;5.57;;
3121;SDS011;1571;52.524;14.104;2023-03-17T07:32:35;9.30;;;6.00;;
3121;SDS011;1571;52.524;14.104;2023-03-17T07:35:03;8.30;;;6.33;;
3121;SDS011;1571;52.524;14.104;2023-03-17T07:37:33;5.85;;;5.25;;
3121;SDS011;1571;52.524;14.104;2023-03-17T07:40:01;9.97;;;5.87;;
3121;SDS011;1571;52.524;14.104;2023-03-17T07:42:29;9.57;;;5.10;;
3121;SDS011;1571;52.524;14.104;2023-03-17T07:44:59;6.03;;;5.00;;
3121;SDS011;1571;52.524;14.104;2023-03-17T07:47:27;11.20;;;5.33;;
3121;SDS011;1571;52.524;14.104;2023-03-17T07:49:56;10.10;;;6.07;;
3121;SDS011;1571;52.524;14.104;2023-03-17T07:52:24;9.93;;;5.30;;
3121;SDS011;1571;52.524;14.104;2023-03-17T07:54:52;11.50;;;6.13;;
3121;SDS011;1571;52.524;14.104;2023-03-17T07:57:21;8.03;;;5.50;;
3121;SDS011;1571;52.524;14.104;2023-03-17T07:59:50;8.47;;;7.47;;
3121;SDS011;1571;52.524;14.104;2023-03-17T08:02:19;7.37;;;4.97;;
3121;SDS011;1571;52.524;14.104;2023-03-17T08:04:47;6.93;;;5.93;;
3121;SDS011;1571;52.524;14.104;2023-03-17T08:07:16;6.30;;;5.23;;
3121;SDS011;1571;52.524;14.104;2023-03-17T08:09:45;5.30;;;4.30;;
3121;SDS011;1571;52.524;14.104;2023-03-17T08:12:13;5.60;;;4.70;;
3121;SDS011;1571;52.524;14.104;2023-03-17T08:14:42;12.93;;;5.90;;
3121;SDS011;1571;52.524;14.104;2023-03-17T08:17:10;8.00;;;5.00;;
3121;SDS011;1571;52.524;14.104;2023-03-17T08:19:40;7.00;;;4.60;;
3121;SDS011;1571;52.524;14.104;2023-03-17T08:22:09;6.10;;;5.13;;
3121;SDS011;1571;52.524;14.104;2023-03-17T08:24:38;6.07;;;4.73;;
3121;SDS011;1571;52.524;14.104;2023-03-17T08:27:08;6.50;;;5.00;;
3121;SDS011;1571;52.524;14.104;2023-03-17T08:29:37;8.93;;;5.43;;
3121;SDS011;1571;52.524;14.104;2023-03-17T08:32:06;5.93;;;4.03;;
3121;SDS011;1571;52.524;14.104;2023-03-17T08:34:35;8.23;;;4.70;;
3121;SDS011;1571;52.524;14.104;2023-03-17T08:37:05;6.90;;;4.07;;
3121;SDS011;1571;52.524;14.104;2023-03-17T08:39:37;6.68;;;5.47;;
3121;SDS011;1571;52.524;14.104;2023-03-17T08:42:06;6.30;;;4.70;;
3121;SDS011;1571;52.524;14.104;2023-03-17T08:44:34;6.00;;;5.17;;
3121;SDS011;1571;52.524;14.104;2023-03-17T08:47:03;8.57;;;4.20;;
3121;SDS011;1571;52.524;14.104;2023-03-17T08:49:31;7.07;;;4.43;;
3121;SDS011;1571;52.524;14.104;2023-03-17T08:52:02;10.00;;;4.68;;
3121;SDS011;1571;52.524;14.104;2023-03-17T08:54:32;5.20;;;4.70;;
3121;SDS011;1571;52.524;14.104;2023-03-17T08:57:01;5.63;;;3.70;;
3121;SDS011;1571;52.524;14.104;2023-03-17T08:59:30;3.93;;;3.60;;
3121;SDS011;1571;52.524;14.104;2023-03-17T09:01:58;4.73;;;4.23;;
3121;SDS011;1571;52.524;14.104;2023-03-17T09:04:27;5.80;;;4.13;;
3121;SDS011;1571;52.524;14.104;2023-03-17T09:06:55;3.78;;;3.38;;
3121;SDS011;1571;52.524;14.104;2023-03-17T09:09:31;5.60;;;3.13;;
3121;SDS011;1571;52.524;14.104;2023-03-17T09:12:01;4.30;;;3.90;;
3121;SDS011;1571;52.524;14.104;2023-03-17T09:14:32;5.40;;;3.42;;
3121;SDS011;1571;52.524;14.104;2023-03-17T09:17:09;4.90;;;4.45;;
3121;SDS011;1571;52.524;14.104;2023-03-17T09:19:39;4.25;;;3.35;;
3121;SDS011;1571;52.524;14.104;2023-03-17T09:22:10;6.80;;;3.60;;
3121;SDS011;1571;52.524;14.104;2023-03-17T09:24:41;5.20;;;3.30;;
3121;SDS011;1571;52.524;14.104;2023-03-17T09:27:09;3.13;;;2.78;;
3121;SDS011;1571;52.524;14.104;2023-03-17T09:29:37;4.33;;;3.73;;
3121;SDS011;1571;52.524;14.104;2023-03-17T09:32:06;3.50;;;2.43;;
3121;SDS011;1571;52.524;14.104;2023-03-17T09:34:35;5.17;;;3.93;;
3121;SDS011;1571;52.524;14.104;2023-03-17T09:37:03;4.67;;;3.30;;
3121;SDS011;1571;52.524;14.104;2023-03-17T09:39:31;6.00;;;3.53;;
3121;SDS011;1571;52.524;14.104;2023-03-17T09:45:08;4.82;;;3.42;;
3121;SDS011;1571;52.524;14.104;2023-03-17T09:47:55;3.33;;;3.03;;
3121;SDS011;1571;52.524;14.104;2023-03-17T09:50:34;3.63;;;3.33;;
3121;SDS011;1571;52.524;14.104;2023-03-17T09:53:11;5.97;;;3.70;;
3121;SDS011;1571;52.524;14.104;2023-03-17T09:55:46;4.53;;;3.10;;
3121;SDS011;1571;52.524;14.104;2023-03-17T09:58:23;4.43;;;4.03;;
3121;SDS011;1571;52.524;14.104;2023-03-17T10:00:55;7.27;;;3.37;;
3121;SDS011;1571;52.524;14.104;2023-03-17T10:03:23;6.10;;;3.70;;
3121;SDS011;1571;52.524;14.104;2023-03-17T10:05:53;3.40;;;2.83;;
3121;SDS011;1571;52.524;14.104;2023-03-17T10:08:40;6.33;;;5.47;;
3121;SDS011;1571;52.524;14.104;2023-03-17T10:11:15;3.63;;;2.70;;
3121;SDS011;1571;52.524;14.104;2023-03-17T10:13:55;3.07;;;2.80;;
3121;SDS011;1571;52.524;14.104;2023-03-17T10:16:30;3.13;;;2.70;;
3121;SDS011;1571;52.524;14.104;2023-03-17T10:19:09;5.97;;;3.20;;
3121;SDS011;1571;52.524;14.104;2023-03-17T10:21:46;4.33;;;3.27;;
3121;SDS011;1571;52.524;14.104;2023-03-17T10:24:17;3.53;;;3.23;;
3121;SDS011;1571;52.524;14.104;2023-03-17T10:26:48;7.90;;;3.45;;
3121;SDS011;1571;52.524;14.104;2023-03-17T10:29:19;3.90;;;3.20;;
3121;SDS011;1571;52.524;14.104;2023-03-17T10:31:50;4.60;;;2.90;;
3121;SDS011;1571;52.524;14.104;2023-03-17T10:34:24;4.40;;;4.00;;
3121;SDS011;1571;52.524;14.104;2023-03-17T10:36:57;4.27;;;2.80;;
3121;SDS011;1571;52.524;14.104;2023-03-17T10:39:29;5.00;;;3.10;;
3121;SDS011;1571;52.524;14.104;2023-03-17T10:41:59;4.70;;;2.90;;
3121;SDS011;1571;52.524;14.104;2023-03-17T10:44:39;4.45;;;3.28;;
3121;SDS011;1571;52.524;14.104;2023-03-17T10:47:20;3.50;;;3.20;;
3121;SDS011;1571;52.524;14.104;2023-03-17T10:49:50;4.13;;;2.90;;
3121;SDS011;1571;52.524;14.104;2023-03-17T10:52:20;4.23;;;3.00;;
3121;SDS011;1571;52.524;14.104;2023-03-17T10:54:53;5.47;;;2.92;;
3121;SDS011;1571;52.524;14.104;2023-03-17T10:57:21;3.10;;;2.73;;
3121;SDS011;1571;52.524;14.104;2023-03-17T10:59:51;2.28;;;2.00;;
3121;SDS011;1571;52.524;14.104;2023-03-17T11:02:23;2.90;;;2.23;;
3121;SDS011;1571;52.524;14.104;2023-03-17T11:04:55;5.80;;;2.30;;
3121;SDS011;1571;52.524;14.104;2023-03-17T11:07:28;4.97;;;2.07;;
3121;SDS011;1571;52.524;14.104;2023-03-17T11:10:11;5.57;;;2.87;;
3121;SDS011;1571;52.524;14.104;2023-03-17T11:12:43;2.90;;;2.63;;
3121;SDS011;1571;52.524;14.104;2023-03-17T11:15:17;3.73;;;2.63;;
3121;SDS011;1571;52.524;14.104;2023-03-17T11:17:50;6.57;;;3.80;;
3121;SDS011;1571;52.524;14.104;2023-03-17T11:20:41;4.10;;;2.50;;
3121;SDS011;1571;52.524;14.104;2023-03-17T11:26:30;8.00;;;3.17;;
3121;SDS011;1571;52.524;14.104;2023-03-17T11:29:12;3.77;;;2.50;;
3121;SDS011;1571;52.524;14.104;2023-03-17T11:31:52;4.53;;;4.05;;
3121;SDS011;1571;52.524;14.104;2023-03-17T11:34:29;2.13;;;1.93;;
3121;SDS011;1571;52.524;14.104;2023-03-17T11:37:10;3.28;;;1.83;;
3121;SDS011;1571;52.524;14.104;2023-03-17T11:39:49;2.93;;;1.83;;
3121;SDS011;1571;52.524;14.104;2023-03-17T11:42:24;2.60;;;2.00;;
3121;SDS011;1571;52.524;14.104;2023-03-17T11:44:57;3.43;;;2.30;;
3121;SDS011;1571;52.524;14.104;2023-03-17T11:47:43;4.80;;;2.08;;
3121;SDS011;1571;52.524;14.104;2023-03-17T11:50:22;3.53;;;2.17;;
3121;SDS011;1571;52.524;14.104;2023-03-17T11:53:07;4.00;;;1.80;;
3121;SDS011;1571;52.524;14.104;2023-03-17T11:55:44;3.13;;;1.80;;
3121;SDS011;1571;52.524;14.104;2023-03-17T11:58:18;3.53;;;2.00;;
3121;SDS011;1571;52.524;14.104;2023-03-17T12:00:55;3.97;;;1.87;;
3121;SDS011;1571;52.524;14.104;2023-03-17T12:03:29;2.67;;;2.30;;
3121;SDS011;1571;52.524;14.104;2023-03-17T12:06:06;2.20;;;1.40;;
3121;SDS011;1571;52.524;14.104;2023-03-17T12:08:41;3.47;;;1.37;;
3121;SDS011;1571;52.524;14.104;2023-03-17T12:11:14;3.90;;;2.50;;
3121;SDS011;1571;52.524;14.104;2023-03-17T12:13:48;2.43;;;1.90;;
3121;SDS011;1571;52.524;14.104;2023-03-17T12:16:21;3.30;;;1.87;;
3121;SDS011;1571;52.524;14.104;2023-03-17T12:19:02;2.07;;;1.87;;
3121;SDS011;1571;52.524;14.104;2023-03-17T12:21:40;4.63;;;2.30;;
3121;SDS011;1571;52.524;14.104;2023-03-17T12:24:17;4.03;;;2.10;;
3121;SDS011;1571;52.524;14.104;2023-03-17T12:26:49;3.25;;;1.60;;
3121;SDS011;1571;52.524;14.104;2023-03-17T12:29:24;1.50;;;1.40;;
3121;SDS011;1571;52.524;14.104;2023-03-17T12:32:02;4.20;;;3.70;;
3121;SDS011;1571;52.524;14.104;2023-03-17T12:34:37;3.42;;;2.40;;
3121;SDS011;1571;52.524;14.104;2023-03-17T12:37:11;6.50;;;2.37;;
3121;SDS011;1571;52.524;14.104;2023-03-17T12:39:44;1.93;;;1.80;;
3121;SDS011;1571;52.524;14.104;2023-03-17T12:42:23;2.10;;;1.90;;
3121;SDS011;1571;52.524;14.104;2023-03-17T12:45:12;2.20;;;1.77;;
3121;SDS011;1571;52.524;14.104;2023-03-17T12:47:57;3.00;;;2.10;;
3121;SDS011;1571;52.524;14.104;2023-03-17T12:50:47;2.60;;;2.10;;
3121;SDS011;1571;52.524;14.104;2023-03-17T12:53:32;2.10;;;1.95;;
3121;SDS011;1571;52.524;14.104;2023-03-17T12:56:07;2.00;;;1.80;;
3121;SDS011;1571;52.524;14.104;2023-03-17T12:58:39;2.23;;;1.73;;
3121;SDS011;1571;52.524;14.104;2023-03-17T13:01:13;3.63;;;1.90;;
3121;SDS011;1571;52.524;14.104;2023-03-17T13:03:55;3.63;;;1.53;;
3121;SDS011;1571;52.524;14.104;2023-03-17T13:06:30;2.40;;;2.00;;
3121;SDS011;1571;52.524;14.104;2023-03-17T13:11:57;3.67;;;1.87;;
3121;SDS011;1571;52.524;14.104;2023-03-17T13:14:38;6.27;;;1.77;;
3121;SDS011;1571;52.524;14.104;2023-03-17T13:17:28;2.07;;;1.67;;
3121;SDS011;1571;52.524;14.104;2023-03-17T13:20:08;3.27;;;1.63;;
3121;SDS011;1571;52.524;14.104;2023-03-17T13:22:59;1.90;;;1.80;;
3121;SDS011;1571;52.524;14.104;2023-03-17T13:25:30;3.50;;;1.40;;
3121;SDS011;1571;52.524;14.104;2023-03-17T13:28:15;4.35;;;2.03;;
3121;SDS011;1571;52.524;14.104;2023-03-17T13:30:55;3.33;;;2.30;;
3121;SDS011;1571;52.524;14.104;2023-03-17T13:33:39;2.60;;;2.00;;
3121;SDS011;1571;52.524;14.104;2023-03-17T13:36:21;2.67;;;2.20;;
3121;SDS011;1571;52.524;14.104;2023-03-17T13:41:55;2.20;;;1.33;;
3121;SDS011;1571;52.524;14.104;2023-03-17T13:47:44;2.13;;;1.63;;
3121;SDS011;1571;52.524;14.104;2023-03-17T13:50:14;2.20;;;1.97;;
3121;SDS011;1571;52.524;14.104;2023-03-17T13:52:45;3.43;;;1.90;;
3121;SDS011;1571;52.524;14.104;2023-03-17T13:55:30;3.93;;;1.30;;
3121;SDS011;1571;52.524;14.104;2023-03-17T14:00:55;3.67;;;1.80;;
3121;SDS011;1571;52.524;14.104;2023-03-17T14:03:29;5.00;;;2.27;;
3121;SDS011;1571;52.524;14.104;2023-03-17T14:06:03;5.17;;;1.90;;
3121;SDS011;1571;52.524;14.104;2023-03-17T14:08:34;4.60;;;2.10;;
3121;SDS011;1571;52.524;14.104;2023-03-17T14:11:07;2.40;;;2.00;;
3121;SDS011;1571;52.524;14.104;2023-03-17T14:13:50;4.13;;;2.50;;
3121;SDS011;1571;52.524;14.104;2023-03-17T14:16:23;2.00;;;1.90;;
3121;SDS011;1571;52.524;14.104;2023-03-17T14:18:56;3.63;;;1.80;;
3121;SDS011;1571;52.524;14.104;2023-03-17T14:21:28;6.03;;;2.03;;
3121;SDS011;1571;52.524;14.104;2023-03-17T14:23:58;4.13;;;2.10;;
3121;SDS011;1571;52.524;14.104;2023-03-17T14:26:30;2.97;;;2.00;;
3121;SDS011;1571;52.524;14.104;2023-03-17T14:28:59;2.33;;;1.53;;
3121;SDS011;1571;52.524;14.104;2023-03-17T14:31:28;1.93;;;1.70;;
3121;SDS011;1571;52.524;14.104;2023-03-17T14:33:57;2.67;;;2.47;;
3121;SDS011;1571;52.524;14.104;2023-03-17T14:36:27;5.40;;;1.70;;
3121;SDS011;1571;52.524;14.104;2023-03-17T14:38:59;2.50;;;1.70;;
3121;SDS011;1571;52.524;14.104;2023-03-17T14:41:27;3.03;;;1.23;;
3121;SDS011;1571;52.524;14.104;2023-03-17T14:44:00;2.30;;;1.80;;
3121;SDS011;1571;52.524;14.104;2023-03-17T14:46:29;4.13;;;2.23;;
3121;SDS011;1571;52.524;14.104;2023-03-17T14:49:00;5.23;;;1.83;;
3121;SDS011;1571;52.524;14.104;2023-03-17T14:51:31;10.23;;;1.80;;
3121;SDS011;1571;52.524;14.104;2023-03-17T14:54:02;5.53;;;2.03;;
3121;SDS011;1571;52.524;14.104;2023-03-17T14:56:39;2.40;;;1.60;;
3121;SDS011;1571;52.524;14.104;2023-03-17T14:59:15;5.37;;;1.80;;
3121;SDS011;1571;52.524;14.104;2023-03-17T15:01:46;3.87;;;1.70;;
3121;SDS011;1571;52.524;14.104;2023-03-17T15:04:15;2.00;;;1.80;;
3121;SDS011;1571;52.524;14.104;2023-03-17T15:06:46;4.93;;;2.10;;
3121;SDS011;1571;52.524;14.104;2023-03-17T15:09:16;3.63;;;2.10;;
3121;SDS011;1571;52.524;14.104;2023-03-17T15:11:48;4.10;;;1.80;;
3121;SDS011;1571;52.524;14.104;2023-03-17T15:14:17;5.63;;;3.40;;
3121;SDS011;1571;52.524;14.104;2023-03-17T15:16:48;1.67;;;1.58;;
3121;SDS011;1571;52.524;14.104;2023-03-17T15:19:19;5.43;;;1.47;;
3121;SDS011;1571;52.524;14.104;2023-03-17T15:21:50;3.40;;;1.50;;
3121;SDS011;1571;52.524;14.104;2023-03-17T15:24:23;3.80;;;1.93;;
3121;SDS011;1571;52.524;14.104;2023-03-17T15:27:01;1.53;;;1.40;;
3121;SDS011;1571;52.524;14.104;2023-03-17T15:29:31;3.13;;;1.53;;
3121;SDS011;1571;52.524;14.104;2023-03-17T15:32:01;3.97;;;1.40;;
3121;SDS011;1571;52.524;14.104;2023-03-17T15:34:37;3.40;;;1.60;;
3121;SDS011;1571;52.524;14.104;2023-03-17T15:37:08;4.10;;;2.20;;
3121;SDS011;1571;52.524;14.104;2023-03-17T15:39:41;4.03;;;2.60;;
3121;SDS011;1571;52.524;14.104;2023-03-17T15:42:11;2.67;;;2.23;;